Fairbank, Iowa
Current Conditions -  °F | °C
As of 4:55 AM on Wednesday 22 Oct 2014 (Local Time) from KOLZ Reporting Station
Clear Clear  
Wind Chill: 30°   Ceiling: Unl
Heat Index: 37°   Visibility: 10mi
Dew Point: 36°   Wind: 10mph
Humidity: 93%   Direction: 130°SE
Pressure: 30.27"   Gusts: NA
Location:  42.64°N, 92.05°W
Report Text: KOLZ 220955Z AUTO 13009KT 10SM CLR 03/02 A3027 RMK AO2
Loading
Personal Weather Stations






























Interactive Weather Map
Tropical Storm Tracking
New forecast layout! Learn more

10-Day Weather Forecast

Advertisements
Track Severe Weather on mobile